sensor_id;sensor_type;location;lat;lon;timestamp;P1;durP1;ratioP1;P2;durP2;ratioP2
36995;SDS011;22905;50.340;10.776;2023-12-07T00:00:59;76.03;;;30.83;;
36995;SDS011;22905;50.340;10.776;2023-12-07T00:06:00;71.57;;;31.98;;
36995;SDS011;22905;50.340;10.776;2023-12-07T00:11:00;73.93;;;30.53;;
36995;SDS011;22905;50.340;10.776;2023-12-07T00:16:00;82.33;;;30.53;;
36995;SDS011;22905;50.340;10.776;2023-12-07T00:21:01;77.70;;;31.05;;
36995;SDS011;22905;50.340;10.776;2023-12-07T00:26:01;78.90;;;31.27;;
36995;SDS011;22905;50.340;10.776;2023-12-07T00:31:03;74.72;;;31.52;;
36995;SDS011;22905;50.340;10.776;2023-12-07T00:36:04;82.03;;;33.30;;
36995;SDS011;22905;50.340;10.776;2023-12-07T00:41:04;83.78;;;34.13;;
36995;SDS011;22905;50.340;10.776;2023-12-07T00:46:06;81.63;;;33.37;;
36995;SDS011;22905;50.340;10.776;2023-12-07T00:56:07;75.53;;;31.05;;
36995;SDS011;22905;50.340;10.776;2023-12-07T01:01:08;80.78;;;33.90;;
36995;SDS011;22905;50.340;10.776;2023-12-07T01:06:08;80.85;;;33.28;;
36995;SDS011;22905;50.340;10.776;2023-12-07T01:11:11;76.15;;;32.22;;
36995;SDS011;22905;50.340;10.776;2023-12-07T01:16:11;80.77;;;32.17;;
36995;SDS011;22905;50.340;10.776;2023-12-07T01:21:11;86.93;;;34.30;;
36995;SDS011;22905;50.340;10.776;2023-12-07T01:26:12;74.55;;;33.55;;
36995;SDS011;22905;50.340;10.776;2023-12-07T01:31:12;75.40;;;33.25;;
36995;SDS011;22905;50.340;10.776;2023-12-07T01:36:13;84.63;;;32.75;;
36995;SDS011;22905;50.340;10.776;2023-12-07T01:41:13;74.72;;;31.60;;
36995;SDS011;22905;50.340;10.776;2023-12-07T01:46:14;82.95;;;33.47;;
36995;SDS011;22905;50.340;10.776;2023-12-07T01:51:15;76.07;;;32.50;;
36995;SDS011;22905;50.340;10.776;2023-12-07T01:56:16;74.87;;;31.90;;
36995;SDS011;22905;50.340;10.776;2023-12-07T02:01:17;75.73;;;32.50;;
36995;SDS011;22905;50.340;10.776;2023-12-07T02:06:17;79.05;;;34.42;;
36995;SDS011;22905;50.340;10.776;2023-12-07T02:11:18;82.28;;;32.70;;
36995;SDS011;22905;50.340;10.776;2023-12-07T02:16:23;82.82;;;34.08;;
36995;SDS011;22905;50.340;10.776;2023-12-07T02:21:47;85.15;;;32.85;;
36995;SDS011;22905;50.340;10.776;2023-12-07T02:26:52;81.60;;;33.72;;
36995;SDS011;22905;50.340;10.776;2023-12-07T02:31:53;83.53;;;35.27;;
36995;SDS011;22905;50.340;10.776;2023-12-07T02:36:53;80.05;;;35.53;;
36995;SDS011;22905;50.340;10.776;2023-12-07T02:41:55;91.93;;;35.57;;
36995;SDS011;22905;50.340;10.776;2023-12-07T02:46:56;74.95;;;32.55;;
36995;SDS011;22905;50.340;10.776;2023-12-07T02:51:58;76.68;;;33.67;;
36995;SDS011;22905;50.340;10.776;2023-12-07T02:56:58;80.83;;;32.40;;
36995;SDS011;22905;50.340;10.776;2023-12-07T03:01:59;72.10;;;31.02;;
36995;SDS011;22905;50.340;10.776;2023-12-07T03:12:30;73.55;;;32.13;;
36995;SDS011;22905;50.340;10.776;2023-12-07T03:17:31;73.57;;;32.88;;
36995;SDS011;22905;50.340;10.776;2023-12-07T03:22:31;78.03;;;34.10;;
36995;SDS011;22905;50.340;10.776;2023-12-07T03:27:31;82.10;;;32.47;;
36995;SDS011;22905;50.340;10.776;2023-12-07T03:32:32;73.00;;;31.30;;
36995;SDS011;22905;50.340;10.776;2023-12-07T03:37:32;80.25;;;34.15;;
36995;SDS011;22905;50.340;10.776;2023-12-07T03:42:33;77.88;;;33.60;;
36995;SDS011;22905;50.340;10.776;2023-12-07T03:47:33;72.60;;;31.33;;
36995;SDS011;22905;50.340;10.776;2023-12-07T03:52:34;77.43;;;34.05;;
36995;SDS011;22905;50.340;10.776;2023-12-07T03:57:34;71.63;;;32.40;;
36995;SDS011;22905;50.340;10.776;2023-12-07T04:02:34;70.60;;;31.20;;
36995;SDS011;22905;50.340;10.776;2023-12-07T04:07:34;78.33;;;32.40;;
36995;SDS011;22905;50.340;10.776;2023-12-07T04:12:35;72.83;;;32.33;;
36995;SDS011;22905;50.340;10.776;2023-12-07T04:17:35;92.53;;;38.53;;
36995;SDS011;22905;50.340;10.776;2023-12-07T04:22:35;68.18;;;31.77;;
36995;SDS011;22905;50.340;10.776;2023-12-07T04:27:36;78.85;;;32.78;;
36995;SDS011;22905;50.340;10.776;2023-12-07T04:32:36;86.43;;;34.97;;
36995;SDS011;22905;50.340;10.776;2023-12-07T04:37:36;87.97;;;36.37;;
36995;SDS011;22905;50.340;10.776;2023-12-07T04:42:37;90.15;;;36.80;;
36995;SDS011;22905;50.340;10.776;2023-12-07T04:47:37;81.97;;;34.83;;
36995;SDS011;22905;50.340;10.776;2023-12-07T04:52:38;75.35;;;31.63;;
36995;SDS011;22905;50.340;10.776;2023-12-07T04:57:38;68.65;;;30.88;;
36995;SDS011;22905;50.340;10.776;2023-12-07T05:02:38;91.22;;;34.90;;
36995;SDS011;22905;50.340;10.776;2023-12-07T05:07:39;76.03;;;32.53;;
36995;SDS011;22905;50.340;10.776;2023-12-07T05:12:39;87.17;;;40.93;;
36995;SDS011;22905;50.340;10.776;2023-12-07T05:17:39;78.72;;;37.13;;
36995;SDS011;22905;50.340;10.776;2023-12-07T05:22:40;85.40;;;38.70;;
36995;SDS011;22905;50.340;10.776;2023-12-07T05:27:40;85.18;;;37.67;;
36995;SDS011;22905;50.340;10.776;2023-12-07T05:32:40;80.35;;;35.22;;
36995;SDS011;22905;50.340;10.776;2023-12-07T05:37:41;80.13;;;34.33;;
36995;SDS011;22905;50.340;10.776;2023-12-07T05:42:41;86.00;;;35.90;;
36995;SDS011;22905;50.340;10.776;2023-12-07T05:47:41;74.70;;;32.93;;
36995;SDS011;22905;50.340;10.776;2023-12-07T05:52:42;75.80;;;34.25;;
36995;SDS011;22905;50.340;10.776;2023-12-07T05:57:44;93.40;;;37.05;;
36995;SDS011;22905;50.340;10.776;2023-12-07T06:02:45;90.60;;;38.10;;
36995;SDS011;22905;50.340;10.776;2023-12-07T06:07:45;94.17;;;39.73;;
36995;SDS011;22905;50.340;10.776;2023-12-07T06:12:45;89.20;;;37.38;;
36995;SDS011;22905;50.340;10.776;2023-12-07T06:17:46;94.55;;;37.08;;
36995;SDS011;22905;50.340;10.776;2023-12-07T06:22:47;96.32;;;38.95;;
36995;SDS011;22905;50.340;10.776;2023-12-07T06:27:47;89.13;;;35.47;;
36995;SDS011;22905;50.340;10.776;2023-12-07T06:32:47;80.65;;;33.13;;
36995;SDS011;22905;50.340;10.776;2023-12-07T06:37:48;84.55;;;35.53;;
36995;SDS011;22905;50.340;10.776;2023-12-07T06:42:48;85.57;;;33.80;;
36995;SDS011;22905;50.340;10.776;2023-12-07T06:47:48;87.88;;;37.50;;
36995;SDS011;22905;50.340;10.776;2023-12-07T06:52:48;86.67;;;36.27;;
36995;SDS011;22905;50.340;10.776;2023-12-07T06:57:49;97.90;;;41.20;;
36995;SDS011;22905;50.340;10.776;2023-12-07T07:02:49;116.25;;;47.92;;
36995;SDS011;22905;50.340;10.776;2023-12-07T07:07:49;105.17;;;46.87;;
36995;SDS011;22905;50.340;10.776;2023-12-07T07:12:51;89.63;;;39.63;;
36995;SDS011;22905;50.340;10.776;2023-12-07T07:17:51;71.35;;;34.47;;
36995;SDS011;22905;50.340;10.776;2023-12-07T07:22:52;77.88;;;34.92;;
36995;SDS011;22905;50.340;10.776;2023-12-07T07:27:52;77.40;;;35.37;;
36995;SDS011;22905;50.340;10.776;2023-12-07T07:32:54;83.10;;;37.40;;
36995;SDS011;22905;50.340;10.776;2023-12-07T07:37:54;84.22;;;35.45;;
36995;SDS011;22905;50.340;10.776;2023-12-07T07:42:55;93.00;;;39.75;;
36995;SDS011;22905;50.340;10.776;2023-12-07T07:47:55;83.93;;;37.60;;
36995;SDS011;22905;50.340;10.776;2023-12-07T07:52:56;111.88;;;43.88;;
36995;SDS011;22905;50.340;10.776;2023-12-07T07:57:56;91.28;;;36.03;;
36995;SDS011;22905;50.340;10.776;2023-12-07T08:02:57;103.20;;;43.10;;
36995;SDS011;22905;50.340;10.776;2023-12-07T08:07:57;87.55;;;36.15;;
36995;SDS011;22905;50.340;10.776;2023-12-07T08:12:57;63.42;;;28.92;;
36995;SDS011;22905;50.340;10.776;2023-12-07T08:17:58;63.38;;;30.08;;
36995;SDS011;22905;50.340;10.776;2023-12-07T08:22:58;65.47;;;27.13;;
36995;SDS011;22905;50.340;10.776;2023-12-07T08:27:59;57.70;;;28.05;;
36995;SDS011;22905;50.340;10.776;2023-12-07T08:32:59;64.37;;;28.83;;
36995;SDS011;22905;50.340;10.776;2023-12-07T08:38:00;52.67;;;24.55;;
36995;SDS011;22905;50.340;10.776;2023-12-07T08:43:00;54.63;;;24.20;;
36995;SDS011;22905;50.340;10.776;2023-12-07T08:48:00;53.75;;;25.50;;
36995;SDS011;22905;50.340;10.776;2023-12-07T08:53:01;58.33;;;27.00;;
36995;SDS011;22905;50.340;10.776;2023-12-07T08:58:01;53.33;;;24.47;;
36995;SDS011;22905;50.340;10.776;2023-12-07T09:14:01;56.00;;;26.27;;
36995;SDS011;22905;50.340;10.776;2023-12-07T09:19:01;56.75;;;28.55;;
36995;SDS011;22905;50.340;10.776;2023-12-07T09:24:02;70.75;;;33.47;;
36995;SDS011;22905;50.340;10.776;2023-12-07T09:29:02;61.90;;;32.23;;
36995;SDS011;22905;50.340;10.776;2023-12-07T09:34:02;52.30;;;26.15;;
36995;SDS011;22905;50.340;10.776;2023-12-07T09:39:03;59.80;;;29.57;;
36995;SDS011;22905;50.340;10.776;2023-12-07T09:44:03;58.85;;;27.42;;
36995;SDS011;22905;50.340;10.776;2023-12-07T09:49:04;58.40;;;26.70;;
36995;SDS011;22905;50.340;10.776;2023-12-07T09:54:04;45.47;;;24.42;;
36995;SDS011;22905;50.340;10.776;2023-12-07T09:59:05;53.70;;;24.70;;
36995;SDS011;22905;50.340;10.776;2023-12-07T10:09:20;44.97;;;20.73;;
36995;SDS011;22905;50.340;10.776;2023-12-07T10:14:21;38.70;;;20.05;;
36995;SDS011;22905;50.340;10.776;2023-12-07T10:19:22;50.03;;;23.73;;
36995;SDS011;22905;50.340;10.776;2023-12-07T10:24:24;45.00;;;23.83;;
36995;SDS011;22905;50.340;10.776;2023-12-07T10:29:25;38.60;;;19.85;;
36995;SDS011;22905;50.340;10.776;2023-12-07T10:39:28;40.33;;;20.27;;
36995;SDS011;22905;50.340;10.776;2023-12-07T10:44:28;29.70;;;17.33;;
36995;SDS011;22905;50.340;10.776;2023-12-07T10:49:29;38.20;;;20.05;;
36995;SDS011;22905;50.340;10.776;2023-12-07T10:54:34;84.53;;;39.25;;
36995;SDS011;22905;50.340;10.776;2023-12-07T10:59:57;57.70;;;24.77;;
36995;SDS011;22905;50.340;10.776;2023-12-07T11:04:57;36.38;;;19.17;;
36995;SDS011;22905;50.340;10.776;2023-12-07T11:10:09;34.97;;;18.73;;
36995;SDS011;22905;50.340;10.776;2023-12-07T11:15:12;33.65;;;18.15;;
36995;SDS011;22905;50.340;10.776;2023-12-07T11:20:18;36.83;;;20.95;;
36995;SDS011;22905;50.340;10.776;2023-12-07T11:25:19;38.30;;;19.33;;
36995;SDS011;22905;50.340;10.776;2023-12-07T11:30:20;60.65;;;30.15;;
36995;SDS011;22905;50.340;10.776;2023-12-07T11:35:20;56.60;;;28.23;;
36995;SDS011;22905;50.340;10.776;2023-12-07T11:40:21;31.58;;;18.15;;
36995;SDS011;22905;50.340;10.776;2023-12-07T11:56:16;30.50;;;16.73;;
36995;SDS011;22905;50.340;10.776;2023-12-07T12:01:20;32.22;;;16.67;;
36995;SDS011;22905;50.340;10.776;2023-12-07T12:06:20;28.98;;;14.75;;
36995;SDS011;22905;50.340;10.776;2023-12-07T12:11:24;26.45;;;16.20;;
36995;SDS011;22905;50.340;10.776;2023-12-07T12:16:24;31.07;;;17.33;;
36995;SDS011;22905;50.340;10.776;2023-12-07T12:21:24;40.78;;;19.05;;
36995;SDS011;22905;50.340;10.776;2023-12-07T12:26:25;33.63;;;18.20;;
36995;SDS011;22905;50.340;10.776;2023-12-07T12:31:25;34.55;;;17.67;;
36995;SDS011;22905;50.340;10.776;2023-12-07T12:36:26;31.13;;;15.73;;
36995;SDS011;22905;50.340;10.776;2023-12-07T12:41:28;39.22;;;20.52;;
36995;SDS011;22905;50.340;10.776;2023-12-07T13:02:36;32.83;;;16.40;;
36995;SDS011;22905;50.340;10.776;2023-12-07T13:07:36;30.00;;;16.55;;
36995;SDS011;22905;50.340;10.776;2023-12-07T13:12:37;39.42;;;18.77;;
36995;SDS011;22905;50.340;10.776;2023-12-07T13:17:37;40.47;;;19.88;;
36995;SDS011;22905;50.340;10.776;2023-12-07T13:22:38;41.22;;;17.95;;
36995;SDS011;22905;50.340;10.776;2023-12-07T13:27:39;37.67;;;19.67;;
36995;SDS011;22905;50.340;10.776;2023-12-07T13:32:39;39.80;;;21.80;;
36995;SDS011;22905;50.340;10.776;2023-12-07T13:37:39;39.00;;;20.50;;
36995;SDS011;22905;50.340;10.776;2023-12-07T13:42:40;34.10;;;18.43;;
36995;SDS011;22905;50.340;10.776;2023-12-07T13:47:40;37.75;;;19.30;;
36995;SDS011;22905;50.340;10.776;2023-12-07T13:52:41;36.50;;;19.60;;
36995;SDS011;22905;50.340;10.776;2023-12-07T13:57:42;30.35;;;16.15;;
36995;SDS011;22905;50.340;10.776;2023-12-07T14:02:42;31.85;;;17.90;;
36995;SDS011;22905;50.340;10.776;2023-12-07T14:07:43;29.35;;;15.70;;
36995;SDS011;22905;50.340;10.776;2023-12-07T14:12:43;27.92;;;14.20;;
36995;SDS011;22905;50.340;10.776;2023-12-07T14:17:44;29.20;;;13.80;;
36995;SDS011;22905;50.340;10.776;2023-12-07T14:22:45;27.88;;;15.32;;
36995;SDS011;22905;50.340;10.776;2023-12-07T14:27:46;33.60;;;18.20;;
36995;SDS011;22905;50.340;10.776;2023-12-07T14:32:46;34.93;;;19.13;;
36995;SDS011;22905;50.340;10.776;2023-12-07T14:37:51;27.38;;;16.02;;
36995;SDS011;22905;50.340;10.776;2023-12-07T14:42:52;27.95;;;16.40;;
36995;SDS011;22905;50.340;10.776;2023-12-07T14:47:52;50.07;;;22.70;;
36995;SDS011;22905;50.340;10.776;2023-12-07T14:52:52;33.25;;;17.48;;
36995;SDS011;22905;50.340;10.776;2023-12-07T14:57:53;34.72;;;18.83;;
36995;SDS011;22905;50.340;10.776;2023-12-07T15:02:53;34.63;;;17.10;;
36995;SDS011;22905;50.340;10.776;2023-12-07T15:07:54;33.92;;;15.77;;
36995;SDS011;22905;50.340;10.776;2023-12-07T15:12:54;35.03;;;19.42;;
36995;SDS011;22905;50.340;10.776;2023-12-07T15:17:55;39.50;;;20.30;;
36995;SDS011;22905;50.340;10.776;2023-12-07T15:22:55;39.15;;;20.80;;
36995;SDS011;22905;50.340;10.776;2023-12-07T15:27:56;41.55;;;21.05;;
36995;SDS011;22905;50.340;10.776;2023-12-07T15:32:57;45.38;;;21.58;;
36995;SDS011;22905;50.340;10.776;2023-12-07T15:37:58;41.10;;;21.27;;
36995;SDS011;22905;50.340;10.776;2023-12-07T15:42:59;56.70;;;30.30;;
36995;SDS011;22905;50.340;10.776;2023-12-07T15:47:59;69.22;;;33.00;;
36995;SDS011;22905;50.340;10.776;2023-12-07T15:52:59;51.42;;;27.90;;
36995;SDS011;22905;50.340;10.776;2023-12-07T15:57:59;57.50;;;25.27;;
36995;SDS011;22905;50.340;10.776;2023-12-07T16:03:01;52.60;;;25.05;;
36995;SDS011;22905;50.340;10.776;2023-12-07T16:08:02;62.22;;;27.73;;
36995;SDS011;22905;50.340;10.776;2023-12-07T16:13:04;69.13;;;31.90;;
36995;SDS011;22905;50.340;10.776;2023-12-07T16:18:05;66.15;;;30.45;;
36995;SDS011;22905;50.340;10.776;2023-12-07T16:23:08;88.70;;;36.13;;
36995;SDS011;22905;50.340;10.776;2023-12-07T16:28:08;76.63;;;33.97;;
36995;SDS011;22905;50.340;10.776;2023-12-07T16:33:08;74.18;;;33.25;;
36995;SDS011;22905;50.340;10.776;2023-12-07T16:38:09;99.20;;;43.00;;
36995;SDS011;22905;50.340;10.776;2023-12-07T16:43:09;98.53;;;42.83;;
36995;SDS011;22905;50.340;10.776;2023-12-07T16:48:09;73.10;;;30.80;;
36995;SDS011;22905;50.340;10.776;2023-12-07T16:53:10;75.43;;;31.23;;
36995;SDS011;22905;50.340;10.776;2023-12-07T16:58:13;63.63;;;29.77;;
36995;SDS011;22905;50.340;10.776;2023-12-07T17:03:15;72.67;;;31.13;;
36995;SDS011;22905;50.340;10.776;2023-12-07T17:08:17;70.45;;;30.30;;
36995;SDS011;22905;50.340;10.776;2023-12-07T17:13:20;71.80;;;30.90;;
36995;SDS011;22905;50.340;10.776;2023-12-07T17:18:21;69.60;;;30.37;;
36995;SDS011;22905;50.340;10.776;2023-12-07T17:23:21;52.95;;;26.30;;
36995;SDS011;22905;50.340;10.776;2023-12-07T17:28:21;51.17;;;23.80;;
36995;SDS011;22905;50.340;10.776;2023-12-07T17:33:22;53.90;;;24.42;;
36995;SDS011;22905;50.340;10.776;2023-12-07T17:38:23;185.45;;;70.65;;
36995;SDS011;22905;50.340;10.776;2023-12-07T17:43:23;71.18;;;30.05;;
36995;SDS011;22905;50.340;10.776;2023-12-07T17:48:23;95.53;;;42.97;;
36995;SDS011;22905;50.340;10.776;2023-12-07T17:53:23;126.25;;;50.70;;
36995;SDS011;22905;50.340;10.776;2023-12-07T17:58:24;135.98;;;55.85;;
36995;SDS011;22905;50.340;10.776;2023-12-07T18:03:24;126.50;;;56.72;;
36995;SDS011;22905;50.340;10.776;2023-12-07T18:08:25;125.78;;;52.90;;
36995;SDS011;22905;50.340;10.776;2023-12-07T18:13:25;125.30;;;50.85;;
36995;SDS011;22905;50.340;10.776;2023-12-07T18:18:25;164.98;;;63.97;;
36995;SDS011;22905;50.340;10.776;2023-12-07T18:23:26;217.23;;;88.03;;
36995;SDS011;22905;50.340;10.776;2023-12-07T18:28:26;92.43;;;40.40;;
36995;SDS011;22905;50.340;10.776;2023-12-07T18:33:27;76.30;;;36.20;;
36995;SDS011;22905;50.340;10.776;2023-12-07T18:38:27;70.45;;;34.33;;
36995;SDS011;22905;50.340;10.776;2023-12-07T18:43:28;99.57;;;43.03;;
36995;SDS011;22905;50.340;10.776;2023-12-07T18:48:29;90.55;;;42.63;;
36995;SDS011;22905;50.340;10.776;2023-12-07T18:53:30;90.32;;;44.15;;
36995;SDS011;22905;50.340;10.776;2023-12-07T18:58:31;82.47;;;36.80;;
36995;SDS011;22905;50.340;10.776;2023-12-07T19:03:32;62.83;;;31.17;;
36995;SDS011;22905;50.340;10.776;2023-12-07T19:08:33;69.40;;;28.95;;
36995;SDS011;22905;50.340;10.776;2023-12-07T19:13:34;73.38;;;30.27;;
36995;SDS011;22905;50.340;10.776;2023-12-07T19:18:34;87.03;;;40.92;;
36995;SDS011;22905;50.340;10.776;2023-12-07T19:23:34;77.55;;;34.50;;
36995;SDS011;22905;50.340;10.776;2023-12-07T19:28:35;73.65;;;34.80;;
36995;SDS011;22905;50.340;10.776;2023-12-07T19:33:36;89.35;;;39.80;;
36995;SDS011;22905;50.340;10.776;2023-12-07T19:38:37;81.93;;;36.15;;
36995;SDS011;22905;50.340;10.776;2023-12-07T19:43:37;101.50;;;43.03;;
36995;SDS011;22905;50.340;10.776;2023-12-07T19:48:37;88.63;;;35.92;;
36995;SDS011;22905;50.340;10.776;2023-12-07T19:53:38;78.40;;;34.37;;
36995;SDS011;22905;50.340;10.776;2023-12-07T19:58:38;68.45;;;31.15;;
36995;SDS011;22905;50.340;10.776;2023-12-07T20:03:39;97.07;;;39.38;;
36995;SDS011;22905;50.340;10.776;2023-12-07T20:08:39;85.40;;;34.55;;
36995;SDS011;22905;50.340;10.776;2023-12-07T20:13:39;80.80;;;33.13;;
36995;SDS011;22905;50.340;10.776;2023-12-07T20:18:39;69.78;;;29.02;;
36995;SDS011;22905;50.340;10.776;2023-12-07T20:23:41;68.30;;;32.65;;
36995;SDS011;22905;50.340;10.776;2023-12-07T20:28:43;78.32;;;31.80;;
36995;SDS011;22905;50.340;10.776;2023-12-07T20:33:44;78.97;;;32.67;;
36995;SDS011;22905;50.340;10.776;2023-12-07T20:38:45;72.85;;;32.25;;
36995;SDS011;22905;50.340;10.776;2023-12-07T20:43:45;92.38;;;34.50;;
36995;SDS011;22905;50.340;10.776;2023-12-07T20:48:45;99.13;;;42.08;;
36995;SDS011;22905;50.340;10.776;2023-12-07T20:53:46;104.67;;;42.97;;
36995;SDS011;22905;50.340;10.776;2023-12-07T20:58:46;71.47;;;31.47;;
36995;SDS011;22905;50.340;10.776;2023-12-07T21:03:47;75.40;;;31.60;;
36995;SDS011;22905;50.340;10.776;2023-12-07T21:08:49;81.82;;;34.35;;
36995;SDS011;22905;50.340;10.776;2023-12-07T21:13:49;83.30;;;35.72;;
36995;SDS011;22905;50.340;10.776;2023-12-07T21:18:50;87.80;;;34.95;;
36995;SDS011;22905;50.340;10.776;2023-12-07T21:23:50;86.45;;;37.38;;
36995;SDS011;22905;50.340;10.776;2023-12-07T21:28:50;85.50;;;36.83;;
36995;SDS011;22905;50.340;10.776;2023-12-07T21:33:51;80.70;;;36.03;;
36995;SDS011;22905;50.340;10.776;2023-12-07T21:38:51;72.27;;;30.90;;
36995;SDS011;22905;50.340;10.776;2023-12-07T21:43:51;72.28;;;30.63;;
36995;SDS011;22905;50.340;10.776;2023-12-07T21:48:51;74.57;;;29.85;;
36995;SDS011;22905;50.340;10.776;2023-12-07T21:53:52;65.50;;;28.52;;
36995;SDS011;22905;50.340;10.776;2023-12-07T21:58:52;80.18;;;32.17;;
36995;SDS011;22905;50.340;10.776;2023-12-07T22:03:53;77.90;;;31.70;;
36995;SDS011;22905;50.340;10.776;2023-12-07T22:08:53;67.43;;;26.23;;
36995;SDS011;22905;50.340;10.776;2023-12-07T22:13:54;67.97;;;29.07;;
36995;SDS011;22905;50.340;10.776;2023-12-07T22:18:54;67.15;;;28.50;;
36995;SDS011;22905;50.340;10.776;2023-12-07T22:23:54;91.20;;;40.73;;
36995;SDS011;22905;50.340;10.776;2023-12-07T22:28:55;67.28;;;29.98;;
36995;SDS011;22905;50.340;10.776;2023-12-07T22:33:55;95.85;;;33.60;;
36995;SDS011;22905;50.340;10.776;2023-12-07T22:38:56;108.03;;;38.37;;
36995;SDS011;22905;50.340;10.776;2023-12-07T22:43:58;156.20;;;49.57;;
36995;SDS011;22905;50.340;10.776;2023-12-07T22:48:58;137.23;;;48.00;;
36995;SDS011;22905;50.340;10.776;2023-12-07T22:53:59;107.93;;;44.27;;
36995;SDS011;22905;50.340;10.776;2023-12-07T22:58:59;75.18;;;33.00;;
36995;SDS011;22905;50.340;10.776;2023-12-07T23:04:00;74.00;;;30.27;;
36995;SDS011;22905;50.340;10.776;2023-12-07T23:09:00;90.97;;;32.08;;
36995;SDS011;22905;50.340;10.776;2023-12-07T23:14:00;116.93;;;37.97;;
36995;SDS011;22905;50.340;10.776;2023-12-07T23:19:01;94.13;;;35.33;;
36995;SDS011;22905;50.340;10.776;2023-12-07T23:24:02;88.38;;;33.28;;
36995;SDS011;22905;50.340;10.776;2023-12-07T23:29:03;88.65;;;32.80;;
36995;SDS011;22905;50.340;10.776;2023-12-07T23:34:03;56.47;;;26.70;;
36995;SDS011;22905;50.340;10.776;2023-12-07T23:39:03;51.50;;;24.90;;
36995;SDS011;22905;50.340;10.776;2023-12-07T23:44:04;51.25;;;23.30;;
36995;SDS011;22905;50.340;10.776;2023-12-07T23:49:05;64.22;;;26.52;;
36995;SDS011;22905;50.340;10.776;2023-12-07T23:54:05;74.13;;;27.42;;
36995;SDS011;22905;50.340;10.776;2023-12-07T23:59:05;69.47;;;29.37;;
